Rustenburg, South Africa
Current Conditions -  °F | °C
As of 12:00 AM on Friday 28 Nov 2014 (Local Time) from FALA Reporting Station
NA  
Wind Chill: 61°   Ceiling: NA
Heat Index: 61°   Visibility: NA
Dew Point: 55°   Wind: 7mph
Humidity: 82%   Direction: 220°SW
Pressure: 30.06"   Gusts: NA
Location:  25.65°S, 27.24°E
Report Text: FALA 272200Z AUTO 22006KT //// // 16/13 Q1018
Loading
Personal Weather Stations






























Interactive Weather Map New forecast layout! Learn more

10-Day Weather Forecast

Advertisements
Track Severe Weather on mobile